Terminal Aerodrome Forecast
Issued by NWS

Home | Current Version | Previous Version | Text Only | Print | Product List | Glossary On
Versions: 1 2 3 4 5 6 7 8 9 10 11 12 13 14 15 16 17 18 19 20 21 22 23 24 25 26 27 28 29 30 31 32 33 34 35 36 37 38 39 40 41 42 43 44 45 46 47 48 49 50
000
FTUS45 KABQ 162326
TAFSAF
TAF
KSAF 162326Z 1700/1724 12015G25KT P6SM VCTS BKN080CB
      TEMPO 1700/1703 VRB20G30KT 6SM -SHRA OVC070
     FM170300 16010KT P6SM BKN090
     FM170800 35009KT P6SM SCT100
     FM171800 29013G23KT P6SM SCT120=

USA.gov is the U.S. government's official web portal to all federal, state and local government web resources and services.